Lake Fork, ID (83635)

3:36 AM MST on February 08, 2016 (GMT -0700)
McCall | | Change Station
CLOSE
Current Station
Airport
Location: McCall,
Elevation: 5020 ft
Nearby Weather Stations

Elev 5020 ft 44.89 °N, 116.10 °W | Updated 45 minutes ago

Clear
Clear
17 °F
Feels Like 12 °F
N
4
Wind Variable Wind from NE

Today
High -- | Low -- °F
--% Chance of Precip.
Yesterday
High -- | Low -- °F
Precip. -- in
Pressure 30.76 in
Visibility 8.0 miles
Clouds Few 100 ft
Windchill 12 °F
Dew Point 13 °F
Humidity 84%
Rainfall 0.00 in
Snow Depth Not available.
7:55 AM 6:02 PM
Waning Crescent, 0% visible
METAR KMYL 080951Z AUTO 05003KT 8SM FEW001 M08/M11 A3062 RMK AO2 SLP416 T10831106
Pressure 30.76 in
Visibility 8.0 miles
Clouds Few 100 ft
Windchill 12 °F
Dew Point 13 °F
Humidity 84%
Rainfall 0.00 in
Snow Depth Not available.
7:55 AM 6:02 PM
Waning Crescent, 0% visible
METAR KMYL 080951Z AUTO 05003KT 8SM FEW001 M08/M11 A3062 RMK AO2 SLP416 T10831106

10-Day Weather Forecast

Almanac

Astronomy

Feb. 08, 2016 Rise Set
Actual Time
Civil Twilight
Nautical Twilight
Astronomical Twilight
Moon
Length of Visible Light
Length of Day
Tomorrow will be .
, % of the Moon is Illuminated

Today's Extremes

State Highs State Lows

Community

WunderPhotos

Upload Photos

1,891,420 photos uploaded!

WunderBlog® & News

Nearby

Air Quality

  Air Quality AQ Index Pollutant
Not available.

Snow Depth

Station Depth Elevation

Earthquake Activity

City Distance Mag. Time & Date
Minimum magnitude displayed is 2.5.

Coastal Water Temperatures

Place Temperature

Stations

Nearby Weather Stations

Station Location Temp. Windchill Dew Point Humidity Wind Precip. Elev Updated Type
                   

Watches & Warnings

There are currently no watches in effect.